Hlavní strana
METAR-TAF:

METAR-TAF

Letiště :

Tulcea, Rumunsko

zeměpisná šířka: 45-11N, zeměpisná délka: 028-49E, výška: 4 m

Aktuální stav počasí

Zpráva byla vytvořena před 42 minutami, v 02:30 UTC
Východoseverovýchodní vítr 9 kt
Teplota 12°C
Vlhkost vzduchu 82%
Tlak 1022 hPa
Viditelnost 10 km a více

METAR: LRTC 180230Z AUTO 06009KT 9999 BKN019/// 12/09 Q1022

Čas: 05:12 (03:12 UTC)

Předpověď počasí

Zpráva byla vytvořena před 22 hodinami a 12 minutami, v 05:00 UTC
Předpověď platná od 17 v 06 UTC do 17 v 15 UTC
Východní vítr 8 kt
Viditelnost 10 km a více
Oblačno až skoro zataženo ve výšce 1500 ft
Změna
od 17 v 07 UTC do 17 v 09 UTC
Oblačno až skoro zataženo ve výšce 2000 ft

TAF: LRTC 170500Z 1706/1715 08008KT 9999 BKN015 BECMG 1707/1709 BKN020

Stav a předpovědi počasí z více než 4 000 letišť (zprávy METAR a TAF).

Červené a žluté tečky na mapě představují dostupné meteorologické stanice.

Když kurzor umístíte na tečku, zobrazí se název stanice.

Pak kliknutím zobrazíte stav a předpověď počasí.

Chcete-li změnit mapu, kliknutím na zelené tlačítko se znaménkem +mapu přiblížíte, kliknutím na zelené tlačítko se znaménkem – mapu oddálíte a kliknutím na zelené šipky přejdete na sousední mapy.


METAR-TAF: